createdAt,value
2023-05-14T00:00:19.156Z,1011.80
2023-05-14T00:01:19.999Z,1011.80
2023-05-14T00:02:20.954Z,1011.79
2023-05-14T00:03:21.839Z,1011.78
2023-05-14T00:04:22.746Z,1011.77
2023-05-14T00:05:23.578Z,1011.77
2023-05-14T00:06:24.465Z,1011.76
2023-05-14T00:07:25.349Z,1011.76
2023-05-14T00:08:26.229Z,1011.76
2023-05-14T00:09:27.075Z,1011.76
2023-05-14T00:10:27.940Z,1011.76
2023-05-14T00:11:28.803Z,1011.77
2023-05-14T00:12:29.729Z,1011.78
2023-05-14T00:13:30.601Z,1011.77
2023-05-14T00:14:31.468Z,1011.77
2023-05-14T00:15:34.177Z,1011.76
2023-05-14T00:16:32.995Z,1011.75
2023-05-14T00:17:33.444Z,1011.76
2023-05-14T00:18:34.354Z,1011.75
2023-05-14T00:19:35.191Z,1011.76
2023-05-14T00:20:36.048Z,1011.76
2023-05-14T00:21:36.925Z,1011.75
2023-05-14T00:22:37.820Z,1011.74
2023-05-14T00:23:38.682Z,1011.73
2023-05-14T00:24:39.540Z,1011.71
2023-05-14T00:25:40.406Z,1011.70
2023-05-14T00:26:41.267Z,1011.69
2023-05-14T00:27:42.160Z,1011.68
2023-05-14T00:28:43.019Z,1011.68
2023-05-14T00:29:43.884Z,1011.68
2023-05-14T00:30:44.765Z,1011.67
2023-05-14T00:31:45.762Z,1011.67
2023-05-14T00:32:46.189Z,1011.66
2023-05-14T00:33:47.042Z,1011.66
2023-05-14T00:34:47.900Z,1011.65
2023-05-14T00:35:48.765Z,1011.64
2023-05-14T00:36:49.656Z,1011.63
2023-05-14T00:37:50.622Z,1011.62
2023-05-14T00:38:51.484Z,1011.61
2023-05-14T00:39:52.341Z,1011.61
2023-05-14T00:40:53.211Z,1011.61
2023-05-14T00:41:54.072Z,1011.61
2023-05-14T00:42:54.963Z,1011.61
2023-05-14T00:43:55.826Z,1011.61
2023-05-14T00:44:56.695Z,1011.60
2023-05-14T00:45:57.553Z,1011.60
2023-05-14T00:46:58.593Z,1011.58
2023-05-14T00:47:59.250Z,1011.57
2023-05-14T00:48:59.633Z,1011.55
2023-05-14T00:50:00.460Z,1011.54
2023-05-14T00:51:01.323Z,1011.52
2023-05-14T00:52:02.232Z,1011.52
2023-05-14T00:53:03.105Z,1011.51
2023-05-14T00:54:03.917Z,1011.50
2023-05-14T00:55:04.784Z,1011.50
2023-05-14T00:56:05.641Z,1011.49
2023-05-14T00:57:06.507Z,1011.48
2023-05-14T00:58:07.413Z,1011.47
2023-05-14T00:59:08.271Z,1011.47
2023-05-14T01:00:09.136Z,1011.46
2023-05-14T01:01:10.027Z,1011.46
2023-05-14T01:02:10.861Z,1011.45
2023-05-14T01:03:12.016Z,1011.45
2023-05-14T01:04:12.422Z,1011.45
2023-05-14T01:05:13.280Z,1011.45
2023-05-14T01:06:14.140Z,1011.46
2023-05-14T01:07:15.025Z,1011.46
2023-05-14T01:08:15.898Z,1011.47
2023-05-14T01:09:16.761Z,1011.47
2023-05-14T01:10:17.633Z,1011.47
2023-05-14T01:11:18.487Z,1011.47
2023-05-14T01:12:19.350Z,1011.46
2023-05-14T01:13:20.268Z,1011.46
2023-05-14T01:14:21.141Z,1011.46
2023-05-14T01:15:22.006Z,1011.46
2023-05-14T01:16:22.904Z,1011.46
2023-05-14T01:17:23.738Z,1011.45
2023-05-14T01:18:24.683Z,1011.44
2023-05-14T01:19:25.510Z,1011.43
2023-05-14T01:20:26.602Z,1011.42
2023-05-14T01:21:26.986Z,1011.42
2023-05-14T01:22:27.878Z,1011.41
2023-05-14T01:23:28.756Z,1011.41
2023-05-14T01:24:29.622Z,1011.39
2023-05-14T01:25:30.477Z,1011.38
2023-05-14T01:26:31.358Z,1011.35
2023-05-14T01:27:32.241Z,1011.33
2023-05-14T01:28:33.122Z,1011.32
2023-05-14T01:29:33.979Z,1011.30
2023-05-14T01:30:34.864Z,1011.30
2023-05-14T01:31:35.826Z,1011.28
2023-05-14T01:32:36.727Z,1011.27
2023-05-14T01:33:37.566Z,1011.26
2023-05-14T01:34:38.423Z,1011.25
2023-05-14T01:35:39.334Z,1011.24
2023-05-14T01:36:40.197Z,1011.22
2023-05-14T01:37:41.081Z,1011.22
2023-05-14T01:38:41.921Z,1011.21
2023-05-14T01:39:42.785Z,1011.21
2023-05-14T01:40:43.700Z,1011.22
2023-05-14T01:41:44.556Z,1011.21
2023-05-14T01:42:45.436Z,1011.21
2023-05-14T01:43:46.281Z,1011.21
2023-05-14T01:44:47.149Z,1011.22
2023-05-14T01:45:48.103Z,1011.22
2023-05-14T01:46:48.925Z,1011.23
2023-05-14T01:47:49.813Z,1011.24
2023-05-14T01:48:50.651Z,1011.26
2023-05-14T01:49:51.515Z,1011.27
2023-05-14T01:50:52.443Z,1011.28
2023-05-14T01:51:53.293Z,1011.30
2023-05-14T01:52:54.177Z,1011.32
2023-05-14T01:53:55.024Z,1011.32
2023-05-14T01:54:55.888Z,1011.32
2023-05-14T01:55:56.770Z,1011.31
2023-05-14T01:56:57.641Z,1011.29
2023-05-14T01:57:58.632Z,1011.27
2023-05-14T01:58:59.463Z,1011.25
2023-05-14T02:00:00.328Z,1011.23
2023-05-14T02:01:01.298Z,1011.21
2023-05-14T02:02:02.214Z,1011.18
2023-05-14T02:03:03.080Z,1011.15
2023-05-14T02:04:04.015Z,1011.13
2023-05-14T02:05:06.779Z,1011.10
2023-05-14T02:06:05.912Z,1011.08
2023-05-14T02:07:06.776Z,1011.08
2023-05-14T02:08:07.671Z,1011.07
2023-05-14T02:09:08.509Z,1011.07
2023-05-14T02:10:09.378Z,1011.07
2023-05-14T02:11:10.357Z,1011.07
2023-05-14T02:12:11.240Z,1011.07
2023-05-14T02:13:12.079Z,1011.07
2023-05-14T02:14:12.946Z,1011.08
2023-05-14T02:15:13.810Z,1011.09
2023-05-14T02:16:14.781Z,1011.10
2023-05-14T02:17:15.644Z,1011.09
2023-05-14T02:18:16.508Z,1011.09
2023-05-14T02:19:17.910Z,1011.09
2023-05-14T02:20:18.164Z,1011.08
2023-05-14T02:21:19.157Z,1011.08
2023-05-14T02:22:19.524Z,1011.07
2023-05-14T02:23:23.806Z,1011.07
2023-05-14T02:24:22.156Z,1011.08
2023-05-14T02:25:22.017Z,1011.08
2023-05-14T02:26:22.928Z,1011.09
2023-05-14T02:27:23.794Z,1011.10
2023-05-14T02:28:24.657Z,1011.10
2023-05-14T02:29:25.520Z,1011.10
2023-05-14T02:30:26.384Z,1011.09
2023-05-14T02:31:27.318Z,1011.04
2023-05-14T02:32:28.440Z,1011.02
2023-05-14T02:33:28.944Z,1011.00
2023-05-14T02:34:29.776Z,1010.98
2023-05-14T02:35:30.642Z,1010.98
2023-05-14T02:36:31.511Z,1010.99
2023-05-14T02:37:32.383Z,1010.99
2023-05-14T02:38:33.266Z,1010.98
2023-05-14T02:39:34.116Z,1010.98
2023-05-14T02:40:34.966Z,1010.95
2023-05-14T02:41:35.874Z,1010.95
2023-05-14T02:42:36.748Z,1010.95
2023-05-14T02:43:37.604Z,1010.96
2023-05-14T02:44:38.467Z,1010.97
2023-05-14T02:45:39.336Z,1010.95
2023-05-14T02:46:40.350Z,1010.93
2023-05-14T02:47:40.740Z,1010.92
2023-05-14T02:48:41.266Z,1010.90
2023-05-14T02:49:42.115Z,1010.88
2023-05-14T02:50:42.989Z,1010.85
2023-05-14T02:51:43.890Z,1010.84
2023-05-14T02:52:44.747Z,1010.84
2023-05-14T02:53:45.635Z,1010.84
2023-05-14T02:54:46.474Z,1010.85
2023-05-14T02:55:47.338Z,1010.87
2023-05-14T02:56:48.298Z,1010.87
2023-05-14T02:57:49.169Z,1010.87
2023-05-14T02:58:50.033Z,1010.87
2023-05-14T02:59:50.890Z,1010.86
2023-05-14T03:00:51.721Z,1010.85
2023-05-14T03:01:52.456Z,1010.83
2023-05-14T03:02:53.289Z,1010.81
2023-05-14T03:03:53.578Z,1010.80
2023-05-14T03:04:54.440Z,1010.79
2023-05-14T03:05:55.308Z,1010.78
2023-05-14T03:06:56.222Z,1010.76
2023-05-14T03:07:57.085Z,1010.74
2023-05-14T03:08:57.974Z,1010.72
2023-05-14T03:09:58.811Z,1010.70
2023-05-14T03:10:59.680Z,1010.70
2023-05-14T03:12:00.596Z,1010.70
2023-05-14T03:13:01.444Z,1010.72
2023-05-14T03:14:02.311Z,1010.73
2023-05-14T03:15:03.183Z,1010.75
2023-05-14T03:16:04.046Z,1010.76
2023-05-14T03:17:05.069Z,1010.78
2023-05-14T03:18:05.487Z,1010.80
2023-05-14T03:19:06.404Z,1010.82
2023-05-14T03:20:07.233Z,1010.83
2023-05-14T03:21:08.094Z,1010.84
2023-05-14T03:22:09.011Z,1010.82
2023-05-14T03:23:09.884Z,1010.80
2023-05-14T03:24:10.775Z,1010.78
2023-05-14T03:25:11.605Z,1010.76
2023-05-14T03:26:12.490Z,1010.76
2023-05-14T03:27:13.474Z,1010.77
2023-05-14T03:28:13.829Z,1010.77
2023-05-14T03:29:14.694Z,1010.78
2023-05-14T03:30:15.558Z,1010.78
2023-05-14T03:31:16.451Z,1010.77
2023-05-14T03:32:17.331Z,1010.77
2023-05-14T03:33:18.196Z,1010.77
2023-05-14T03:34:19.066Z,1010.77
2023-05-14T03:35:19.920Z,1010.76
2023-05-14T03:36:20.798Z,1010.76
2023-05-14T03:37:21.692Z,1010.75
2023-05-14T03:38:22.552Z,1010.74
2023-05-14T03:39:23.454Z,1010.75
2023-05-14T03:40:24.501Z,1010.76
2023-05-14T03:41:25.039Z,1010.77
2023-05-14T03:42:26.097Z,1010.78
2023-05-14T03:43:26.459Z,1010.79
2023-05-14T03:44:27.328Z,1010.79
2023-05-14T03:45:28.215Z,1010.79
2023-05-14T03:46:29.052Z,1010.79
2023-05-14T03:47:30.032Z,1010.79
2023-05-14T03:48:30.970Z,1010.79
2023-05-14T03:49:31.823Z,1010.78
2023-05-14T03:50:32.684Z,1010.76
2023-05-14T03:51:33.542Z,1010.73
2023-05-14T03:52:34.454Z,1010.71
2023-05-14T03:53:35.320Z,1010.70
2023-05-14T03:54:36.202Z,1010.70
2023-05-14T03:55:37.064Z,1010.71
2023-05-14T03:56:37.913Z,1010.71
2023-05-14T03:57:38.798Z,1010.72
2023-05-14T03:58:39.692Z,1010.72
2023-05-14T03:59:40.529Z,1010.71
2023-05-14T04:00:41.393Z,1010.73
2023-05-14T04:01:42.255Z,1010.74
2023-05-14T04:02:43.228Z,1010.75
2023-05-14T04:03:44.224Z,1010.75
2023-05-14T04:04:44.665Z,1010.75
2023-05-14T04:05:45.550Z,1010.75
2023-05-14T04:06:46.413Z,1010.76
2023-05-14T04:07:47.376Z,1010.77
2023-05-14T04:08:48.239Z,1010.77
2023-05-14T04:09:49.129Z,1010.77
2023-05-14T04:10:49.971Z,1010.78
2023-05-14T04:11:50.831Z,1010.79
2023-05-14T04:12:51.754Z,1010.80
2023-05-14T04:13:52.619Z,1010.80
2023-05-14T04:14:53.482Z,1010.80
2023-05-14T04:15:54.366Z,1010.80
2023-05-14T04:16:55.211Z,1010.81
2023-05-14T04:17:56.168Z,1010.82
2023-05-14T04:18:57.042Z,1010.82
2023-05-14T04:19:57.886Z,1010.82
2023-05-14T04:20:58.743Z,1010.81
2023-05-14T04:21:59.608Z,1010.81
2023-05-14T04:23:00.509Z,1010.80
2023-05-14T04:24:01.372Z,1010.79
2023-05-14T04:25:02.261Z,1010.78
2023-05-14T04:26:03.114Z,1010.76
2023-05-14T04:27:03.986Z,1010.75
2023-05-14T04:28:04.995Z,1010.74
2023-05-14T04:29:05.350Z,1010.72
2023-05-14T04:30:06.198Z,1010.71
2023-05-14T04:31:07.062Z,1010.71
2023-05-14T04:32:08.067Z,1010.70
2023-05-14T04:33:08.546Z,1010.72
2023-05-14T04:34:09.403Z,1010.74
2023-05-14T04:35:10.258Z,1010.76
2023-05-14T04:36:11.122Z,1010.79
2023-05-14T04:37:11.984Z,1010.79
2023-05-14T04:38:12.897Z,1010.78
2023-05-14T04:39:13.742Z,1010.78
2023-05-14T04:40:14.652Z,1010.79
2023-05-14T04:41:15.471Z,1010.79
2023-05-14T04:42:16.346Z,1010.80
2023-05-14T04:43:17.254Z,1010.79
2023-05-14T04:44:18.118Z,1010.78
2023-05-14T04:45:18.980Z,1010.78
2023-05-14T04:46:19.901Z,1010.78
2023-05-14T04:47:20.801Z,1010.78
2023-05-14T04:48:21.710Z,1010.78
2023-05-14T04:49:22.563Z,1010.78
2023-05-14T04:50:23.695Z,1010.79
2023-05-14T04:51:24.121Z,1010.79
2023-05-14T04:52:24.988Z,1010.78
2023-05-14T04:53:25.991Z,1010.78
2023-05-14T04:54:26.417Z,1010.77
2023-05-14T04:55:27.296Z,1010.76
2023-05-14T04:56:28.141Z,1010.78
2023-05-14T04:57:29.000Z,1010.78
2023-05-14T04:58:30.539Z,1010.79
2023-05-14T04:59:30.396Z,1010.81
2023-05-14T05:00:31.264Z,1010.83
2023-05-14T05:01:32.178Z,1010.83
2023-05-14T05:02:33.042Z,1010.83
2023-05-14T05:03:33.994Z,1010.82
2023-05-14T05:04:41.827Z,1010.82
2023-05-14T05:05:35.677Z,1010.81
2023-05-14T05:06:36.538Z,1010.81
2023-05-14T05:07:37.405Z,1010.82
2023-05-14T05:08:38.287Z,1010.82
2023-05-14T05:09:39.152Z,1010.82
2023-05-14T05:10:40.044Z,1010.81
2023-05-14T05:11:40.879Z,1010.80
2023-05-14T05:12:41.749Z,1010.81
2023-05-14T05:13:42.666Z,1010.80
2023-05-14T05:14:43.517Z,1010.79
2023-05-14T05:15:44.416Z,1010.81
2023-05-14T05:16:45.246Z,1010.82
2023-05-14T05:17:46.142Z,1010.84
2023-05-14T05:18:47.070Z,1010.86
2023-05-14T05:19:47.481Z,1010.86
2023-05-14T05:20:48.343Z,1010.85
2023-05-14T05:21:49.204Z,1010.85
2023-05-14T05:22:50.077Z,1010.84
2023-05-14T05:23:50.973Z,1010.83
2023-05-14T05:24:51.849Z,1010.84
2023-05-14T05:25:52.725Z,1010.85
2023-05-14T05:26:53.566Z,1010.87
2023-05-14T05:27:54.433Z,1010.88
2023-05-14T05:28:55.325Z,1010.88
2023-05-14T05:29:56.181Z,1010.88
2023-05-14T05:30:57.085Z,1010.88
2023-05-14T05:31:57.919Z,1010.88
2023-05-14T05:32:58.846Z,1010.90
2023-05-14T05:33:59.703Z,1010.91
2023-05-14T05:35:00.566Z,1010.93
2023-05-14T05:36:01.431Z,1010.94
2023-05-14T05:37:02.294Z,1010.94
2023-05-14T05:38:03.160Z,1010.94
2023-05-14T05:39:04.059Z,1010.93
2023-05-14T05:40:04.927Z,1010.93
2023-05-14T05:41:05.820Z,1010.93
2023-05-14T05:42:06.655Z,1010.93
2023-05-14T05:43:07.515Z,1010.91
2023-05-14T05:44:08.406Z,1010.90
2023-05-14T05:45:09.263Z,1010.91
2023-05-14T05:46:10.175Z,1010.91
2023-05-14T05:47:11.021Z,1010.91
2023-05-14T05:48:11.891Z,1010.90
2023-05-14T05:49:12.775Z,1010.90
2023-05-14T05:50:13.654Z,1010.90
2023-05-14T05:51:14.508Z,1010.91
2023-05-14T05:52:15.367Z,1010.91
2023-05-14T05:53:16.248Z,1010.91
2023-05-14T05:54:17.129Z,1010.93
2023-05-14T05:55:17.993Z,1010.94
2023-05-14T05:56:18.879Z,1010.93
2023-05-14T05:57:19.728Z,1010.92
2023-05-14T05:58:20.586Z,1010.93
2023-05-14T05:59:21.491Z,1010.93
2023-05-14T06:00:22.597Z,1010.95
2023-05-14T06:01:23.068Z,1010.95
2023-05-14T06:02:24.021Z,1010.94
2023-05-14T06:03:24.951Z,1010.95
2023-05-14T06:04:25.853Z,1010.95
2023-05-14T06:05:26.743Z,1010.95
2023-05-14T06:06:27.712Z,1010.94
2023-05-14T06:07:28.374Z,1010.94
2023-05-14T06:08:29.226Z,1010.94
2023-05-14T06:09:30.142Z,1010.95
2023-05-14T06:10:31.006Z,1010.95
2023-05-14T06:11:31.892Z,1010.96
2023-05-14T06:12:32.740Z,1010.96
2023-05-14T06:13:33.598Z,1010.95
2023-05-14T06:14:34.511Z,1010.96
2023-05-14T06:15:35.371Z,1010.95
2023-05-14T06:16:36.276Z,1010.96
2023-05-14T06:17:37.152Z,1010.96
2023-05-14T06:18:38.036Z,1010.98
2023-05-14T06:19:38.959Z,1010.98
2023-05-14T06:20:39.819Z,1010.99
2023-05-14T06:21:40.709Z,1010.99
2023-05-14T06:22:41.553Z,1011.00
2023-05-14T06:23:42.423Z,1011.01
2023-05-14T06:24:43.318Z,1011.01
2023-05-14T06:25:44.186Z,1011.01
2023-05-14T06:26:45.124Z,1011.00
2023-05-14T06:27:45.978Z,1011.00
2023-05-14T06:28:46.823Z,1011.00
2023-05-14T06:29:47.758Z,1011.00
2023-05-14T06:30:48.618Z,1010.98
2023-05-14T06:31:49.519Z,1011.00
2023-05-14T06:32:50.370Z,1011.02
2023-05-14T06:33:51.208Z,1011.04
2023-05-14T06:34:52.083Z,1011.04
2023-05-14T06:35:52.946Z,1011.05
2023-05-14T06:36:53.820Z,1011.05
2023-05-14T06:37:54.681Z,1011.05
2023-05-14T06:38:55.555Z,1011.07
2023-05-14T06:39:57.728Z,1011.06
2023-05-14T06:40:57.372Z,1011.06
2023-05-14T06:41:58.257Z,1011.07
2023-05-14T06:42:59.105Z,1011.07
2023-05-14T06:43:59.962Z,1011.09
2023-05-14T06:45:00.867Z,1011.07
2023-05-14T06:46:01.743Z,1011.06
2023-05-14T06:47:02.598Z,1011.05
2023-05-14T06:48:03.575Z,1011.03
2023-05-14T06:49:03.997Z,1011.03
2023-05-14T06:50:05.029Z,1011.02
2023-05-14T06:51:05.393Z,1011.00
2023-05-14T06:52:06.260Z,1011.01
2023-05-14T06:53:07.125Z,1011.02
2023-05-14T06:54:07.981Z,1011.02
2023-05-14T06:55:08.971Z,1011.03
2023-05-14T06:56:09.840Z,1011.03
2023-05-14T06:57:10.736Z,1011.01
2023-05-14T06:58:11.573Z,1010.99
2023-05-14T06:59:12.421Z,1010.98
2023-05-14T07:00:13.341Z,1010.97
2023-05-14T07:01:14.221Z,1010.96
2023-05-14T07:02:15.075Z,1010.96
2023-05-14T07:03:15.940Z,1010.96
2023-05-14T07:04:16.916Z,1010.96
2023-05-14T07:05:17.776Z,1010.94
2023-05-14T07:06:18.638Z,1010.94
2023-05-14T07:07:19.507Z,1010.93
2023-05-14T07:08:20.373Z,1010.92
2023-05-14T07:09:21.232Z,1010.92
2023-05-14T07:10:22.378Z,1010.91
2023-05-14T07:11:23.033Z,1010.89
2023-05-14T07:12:23.910Z,1010.90
2023-05-14T07:13:26.380Z,1010.88
2023-05-14T07:14:25.556Z,1010.88
2023-05-14T07:15:26.469Z,1010.87
2023-05-14T07:16:27.365Z,1010.86
2023-05-14T07:17:28.361Z,1010.86
2023-05-14T07:18:28.762Z,1010.86
2023-05-14T07:19:29.638Z,1010.86
2023-05-14T07:20:30.533Z,1010.86
2023-05-14T07:21:31.396Z,1010.86
2023-05-14T07:22:32.260Z,1010.86
2023-05-14T07:23:33.126Z,1010.87
2023-05-14T07:24:33.991Z,1010.88
2023-05-14T07:25:34.908Z,1010.89
2023-05-14T07:26:35.768Z,1010.89
2023-05-14T07:27:36.653Z,1010.89
2023-05-14T07:28:37.496Z,1010.88
2023-05-14T07:29:38.361Z,1010.87
2023-05-14T07:30:39.358Z,1010.84
2023-05-14T07:31:39.747Z,1010.83
2023-05-14T07:32:40.662Z,1010.84
2023-05-14T07:33:41.176Z,1010.83
2023-05-14T07:34:42.012Z,1010.83
2023-05-14T07:35:43.012Z,1010.84
2023-05-14T07:36:43.374Z,1010.83
2023-05-14T07:37:44.242Z,1010.84
2023-05-14T07:38:45.115Z,1010.83
2023-05-14T07:39:45.979Z,1010.85
2023-05-14T07:40:46.956Z,1010.86
2023-05-14T07:41:47.806Z,1010.82
2023-05-14T07:42:48.805Z,1010.83
2023-05-14T07:43:50.512Z,1010.81
2023-05-14T07:44:50.394Z,1010.81
2023-05-14T07:45:51.305Z,1010.81
2023-05-14T07:46:52.217Z,1010.79
2023-05-14T07:47:53.131Z,1010.79
2023-05-14T07:48:54.048Z,1010.78
2023-05-14T07:49:54.862Z,1010.79
2023-05-14T07:50:55.775Z,1010.78
2023-05-14T07:51:56.630Z,1010.81
2023-05-14T07:52:57.493Z,1010.80
2023-05-14T07:53:58.359Z,1010.80
2023-05-14T07:54:59.234Z,1010.82
2023-05-14T07:56:00.175Z,1010.80
2023-05-14T07:57:01.054Z,1010.79
2023-05-14T07:58:01.907Z,1010.77
2023-05-14T07:59:02.741Z,1010.77
2023-05-14T08:00:03.605Z,1010.78
2023-05-14T08:01:04.513Z,1010.77
2023-05-14T08:02:05.460Z,1010.76
2023-05-14T08:03:06.397Z,1010.74
2023-05-14T08:04:07.380Z,1010.73
2023-05-14T08:05:08.276Z,1010.71
2023-05-14T08:06:09.168Z,1010.72
2023-05-14T08:07:10.037Z,1010.71
2023-05-14T08:08:10.896Z,1010.73
2023-05-14T08:09:11.761Z,1010.73
2023-05-14T08:10:12.621Z,1010.71
2023-05-14T08:11:13.553Z,1010.70
2023-05-14T08:12:14.384Z,1010.70
2023-05-14T08:13:15.282Z,1010.70
2023-05-14T08:14:16.113Z,1010.68
2023-05-14T08:15:16.978Z,1010.67
2023-05-14T08:16:17.920Z,1010.67
2023-05-14T08:17:18.835Z,1010.69
2023-05-14T08:18:19.671Z,1010.66
2023-05-14T08:19:20.571Z,1010.68
2023-05-14T08:20:21.469Z,1010.66
2023-05-14T08:21:22.489Z,1010.68
2023-05-14T08:22:22.856Z,1010.71
2023-05-14T08:23:23.717Z,1010.71
2023-05-14T08:24:24.599Z,1010.71
2023-05-14T08:25:25.444Z,1010.73
2023-05-14T08:26:26.337Z,1010.71
2023-05-14T08:27:27.200Z,1010.72
2023-05-14T08:28:28.092Z,1010.74
2023-05-14T08:29:28.928Z,1010.76
2023-05-14T08:30:29.825Z,1010.77
2023-05-14T08:31:30.753Z,1010.75
2023-05-14T08:32:31.623Z,1010.74
2023-05-14T08:33:32.467Z,1010.74
2023-05-14T08:34:33.343Z,1010.73
2023-05-14T08:35:34.196Z,1010.72
2023-05-14T08:36:35.106Z,1010.70
2023-05-14T08:37:35.968Z,1010.70
2023-05-14T08:38:36.838Z,1010.69
2023-05-14T08:39:37.698Z,1010.68
2023-05-14T08:40:38.572Z,1010.68
2023-05-14T08:41:39.465Z,1010.67
2023-05-14T08:42:40.330Z,1010.64
2023-05-14T08:43:41.218Z,1010.63
2023-05-14T08:44:42.058Z,1010.61
2023-05-14T08:45:42.922Z,1010.60
2023-05-14T08:46:43.827Z,1010.59
2023-05-14T08:47:44.712Z,1010.61
2023-05-14T08:48:45.609Z,1010.61
2023-05-14T08:49:46.477Z,1010.58
2023-05-14T08:50:47.331Z,1010.56
2023-05-14T08:51:48.249Z,1010.55
2023-05-14T08:52:49.099Z,1010.56
2023-05-14T08:53:49.971Z,1010.52
2023-05-14T08:54:50.841Z,1010.53
2023-05-14T08:55:51.702Z,1010.52
2023-05-14T08:56:52.603Z,1010.52
2023-05-14T08:57:53.450Z,1010.50
2023-05-14T08:58:54.333Z,1010.50
2023-05-14T08:59:55.175Z,1010.48
2023-05-14T09:00:56.038Z,1010.50
2023-05-14T09:01:56.968Z,1010.48
2023-05-14T09:02:57.833Z,1010.47
2023-05-14T09:03:58.785Z,1010.45
2023-05-14T09:04:59.613Z,1010.45
2023-05-14T09:06:00.479Z,1010.43
2023-05-14T09:07:01.375Z,1010.43
2023-05-14T09:08:02.244Z,1010.43
2023-05-14T09:09:03.105Z,1010.44
2023-05-14T09:10:04.019Z,1010.45
2023-05-14T09:11:04.880Z,1010.45
2023-05-14T09:12:05.802Z,1010.45
2023-05-14T09:13:06.654Z,1010.45
2023-05-14T09:14:07.549Z,1010.42
2023-05-14T09:15:08.395Z,1010.43
2023-05-14T09:16:09.271Z,1010.42
2023-05-14T09:17:10.153Z,1010.41
2023-05-14T09:18:11.113Z,1010.39
2023-05-14T09:19:11.613Z,1010.38
2023-05-14T09:20:12.477Z,1010.34
2023-05-14T09:21:13.326Z,1010.34
2023-05-14T09:22:14.231Z,1010.34
2023-05-14T09:23:15.097Z,1010.36
2023-05-14T09:24:15.961Z,1010.35
2023-05-14T09:25:16.864Z,1010.32
2023-05-14T09:26:17.684Z,1010.31
2023-05-14T09:27:18.600Z,1010.33
2023-05-14T09:28:19.468Z,1010.29
2023-05-14T09:29:20.346Z,1010.30
2023-05-14T09:30:21.258Z,1010.31
2023-05-14T09:31:22.148Z,1010.29
2023-05-14T09:32:23.080Z,1010.28
2023-05-14T09:33:23.905Z,1010.26
2023-05-14T09:34:24.817Z,1010.30
2023-05-14T09:35:25.635Z,1010.25
2023-05-14T09:36:26.499Z,1010.24
2023-05-14T09:37:27.435Z,1010.27
2023-05-14T09:38:28.294Z,1010.26
2023-05-14T09:39:29.154Z,1010.27
2023-05-14T09:40:30.153Z,1010.27
2023-05-14T09:41:30.536Z,1010.29
2023-05-14T09:42:31.437Z,1010.28
2023-05-14T09:43:32.320Z,1010.26
2023-05-14T09:44:33.188Z,1010.27
2023-05-14T09:45:34.026Z,1010.24
2023-05-14T09:46:34.889Z,1010.26
2023-05-14T09:47:35.870Z,1010.24
2023-05-14T09:48:36.734Z,1010.23
2023-05-14T09:49:37.636Z,1010.20
2023-05-14T09:50:38.506Z,1010.20
2023-05-14T09:51:39.363Z,1010.18
2023-05-14T09:52:40.265Z,1010.15
2023-05-14T09:53:41.130Z,1010.14
2023-05-14T09:54:41.991Z,1010.17
2023-05-14T09:55:42.855Z,1010.16
2023-05-14T09:56:43.719Z,1010.15
2023-05-14T09:57:44.699Z,1010.10
2023-05-14T09:58:45.596Z,1010.12
2023-05-14T09:59:46.448Z,1010.10
2023-05-14T10:00:47.361Z,1010.09
2023-05-14T10:01:48.193Z,1010.07
2023-05-14T10:02:49.154Z,1010.03
2023-05-14T10:03:49.990Z,1010.05
2023-05-14T10:04:50.960Z,1010.01
2023-05-14T10:05:51.846Z,1009.99
2023-05-14T10:06:52.702Z,1009.97
2023-05-14T10:07:53.606Z,1009.99
2023-05-14T10:08:54.472Z,1009.99
2023-05-14T10:09:56.693Z,1009.98
2023-05-14T10:10:55.940Z,1009.95
2023-05-14T10:11:56.807Z,1009.95
2023-05-14T10:12:57.717Z,1009.93
2023-05-14T10:13:58.563Z,1009.92
2023-05-14T10:14:59.444Z,1009.91
2023-05-14T10:16:00.287Z,1009.90
2023-05-14T10:17:01.168Z,1009.91
2023-05-14T10:18:02.093Z,1009.92
2023-05-14T10:19:03.091Z,1009.95
2023-05-14T10:20:03.433Z,1009.95
2023-05-14T10:21:04.297Z,1009.97
2023-05-14T10:22:05.163Z,1009.97
2023-05-14T10:23:06.065Z,1009.96
2023-05-14T10:24:06.945Z,1009.96
2023-05-14T10:25:07.806Z,1009.93
2023-05-14T10:26:08.665Z,1009.91
2023-05-14T10:27:09.537Z,1009.87
2023-05-14T10:28:10.442Z,1009.89
2023-05-14T10:29:11.294Z,1009.88
2023-05-14T10:30:12.176Z,1009.85
2023-05-14T10:31:13.054Z,1009.85
2023-05-14T10:32:13.903Z,1009.84
2023-05-14T10:33:14.840Z,1009.86
2023-05-14T10:34:15.693Z,1009.84
2023-05-14T10:35:16.560Z,1009.83
2023-05-14T10:36:17.430Z,1009.83
2023-05-14T10:37:18.286Z,1009.82
2023-05-14T10:38:19.181Z,1009.81
2023-05-14T10:39:20.064Z,1009.79
2023-05-14T10:40:21.004Z,1009.80
2023-05-14T10:41:21.888Z,1009.79
2023-05-14T10:42:22.708Z,1009.77
2023-05-14T10:43:23.612Z,1009.75
2023-05-14T10:44:24.485Z,1009.74
2023-05-14T10:45:25.398Z,1009.73
2023-05-14T10:46:26.326Z,1009.72
2023-05-14T10:47:27.153Z,1009.70
2023-05-14T10:48:28.145Z,1009.73
2023-05-14T10:49:39.802Z,1009.72
2023-05-14T10:50:30.274Z,1009.70
2023-05-14T10:51:30.158Z,1009.69
2023-05-14T10:52:31.009Z,1009.66
2023-05-14T10:53:31.902Z,1009.64
2023-05-14T10:54:32.781Z,1009.63
2023-05-14T10:55:33.631Z,1009.64
2023-05-14T10:56:34.500Z,1009.64
2023-05-14T10:57:35.377Z,1009.64
2023-05-14T10:58:36.277Z,1009.64
2023-05-14T10:59:37.144Z,1009.61
2023-05-14T11:00:38.032Z,1009.61
2023-05-14T11:01:38.900Z,1009.61
2023-05-14T11:02:39.788Z,1009.60
2023-05-14T11:03:40.712Z,1009.59
2023-05-14T11:04:41.553Z,1009.56
2023-05-14T11:05:42.410Z,1009.56
2023-05-14T11:06:43.284Z,1009.56
2023-05-14T11:07:44.147Z,1009.56
2023-05-14T11:08:45.010Z,1009.54
2023-05-14T11:09:45.884Z,1009.54
2023-05-14T11:10:46.752Z,1009.54
2023-05-14T11:11:47.617Z,1009.55
2023-05-14T11:12:48.504Z,1009.54
2023-05-14T11:13:49.345Z,1009.57
2023-05-14T11:14:50.213Z,1009.57
2023-05-14T11:15:51.112Z,1009.55
2023-05-14T11:16:51.971Z,1009.54
2023-05-14T11:17:52.837Z,1009.54
2023-05-14T11:18:53.757Z,1009.52
2023-05-14T11:19:54.609Z,1009.51
2023-05-14T11:20:55.507Z,1009.51
2023-05-14T11:21:56.366Z,1009.54
2023-05-14T11:22:57.233Z,1009.52
2023-05-14T11:23:58.093Z,1009.53
2023-05-14T11:24:58.971Z,1009.51
2023-05-14T11:25:59.907Z,1009.50
2023-05-14T11:27:00.724Z,1009.50
2023-05-14T11:28:01.587Z,1009.51
2023-05-14T11:29:02.455Z,1009.50
2023-05-14T11:30:03.354Z,1009.47
2023-05-14T11:31:04.256Z,1009.47
2023-05-14T11:32:05.188Z,1009.44
2023-05-14T11:33:06.065Z,1009.45
2023-05-14T11:34:06.897Z,1009.47
2023-05-14T11:35:07.761Z,1009.45
2023-05-14T11:36:08.646Z,1009.43
2023-05-14T11:37:09.513Z,1009.40
2023-05-14T11:38:10.374Z,1009.41
2023-05-14T11:39:11.237Z,1009.40
2023-05-14T11:40:12.098Z,1009.37
2023-05-14T11:41:12.987Z,1009.33
2023-05-14T11:42:13.863Z,1009.32
2023-05-14T11:43:14.715Z,1009.29
2023-05-14T11:44:15.597Z,1009.29
2023-05-14T11:45:16.465Z,1009.30
2023-05-14T11:46:17.561Z,1009.31
2023-05-14T11:47:17.955Z,1009.30
2023-05-14T11:48:18.818Z,1009.31
2023-05-14T11:49:19.683Z,1009.29
2023-05-14T11:50:20.551Z,1009.27
2023-05-14T11:51:21.454Z,1009.28
2023-05-14T11:52:22.306Z,1009.23
2023-05-14T11:53:23.170Z,1009.22
2023-05-14T11:54:24.068Z,1009.20
2023-05-14T11:55:24.931Z,1009.19
2023-05-14T11:56:25.826Z,1009.16
2023-05-14T11:57:26.689Z,1009.15
2023-05-14T11:58:27.555Z,1009.12
2023-05-14T11:59:28.423Z,1009.12
2023-05-14T12:00:29.287Z,1009.10
2023-05-14T12:01:30.219Z,1009.12
2023-05-14T12:02:31.099Z,1009.11
2023-05-14T12:03:32.115Z,1009.09
2023-05-14T12:04:32.574Z,1009.09
2023-05-14T12:05:33.434Z,1009.08
2023-05-14T12:06:34.436Z,1009.08
2023-05-14T12:07:35.286Z,1009.08
2023-05-14T12:08:36.169Z,1009.06
2023-05-14T12:09:37.008Z,1009.07
2023-05-14T12:10:37.869Z,1009.07
2023-05-14T12:11:38.754Z,1009.06
2023-05-14T12:12:39.633Z,1009.04
2023-05-14T12:13:40.483Z,1009.08
2023-05-14T12:14:41.345Z,1009.10
2023-05-14T12:15:42.261Z,1009.06